sensor_id;sensor_type;location;lat;lon;timestamp;temperature;humidity
20911;DHT22;10615;42.702;23.314;2023-02-21T00:00:50;6.70;71.00
20911;DHT22;10615;42.702;23.314;2023-02-21T00:02:10;6.70;71.00
20911;DHT22;10615;42.702;23.314;2023-02-21T00:03:32;6.60;71.00
20911;DHT22;10615;42.702;23.314;2023-02-21T00:04:52;6.60;71.20
20911;DHT22;10615;42.702;23.314;2023-02-21T00:06:11;6.60;71.30
20911;DHT22;10615;42.702;23.314;2023-02-21T00:07:32;6.60;71.30
20911;DHT22;10615;42.702;23.314;2023-02-21T00:08:51;6.60;71.40
20911;DHT22;10615;42.702;23.314;2023-02-21T00:10:12;6.60;71.40
20911;DHT22;10615;42.702;23.314;2023-02-21T00:11:32;6.60;71.40
20911;DHT22;10615;42.702;23.314;2023-02-21T00:12:51;6.60;71.30
20911;DHT22;10615;42.702;23.314;2023-02-21T00:14:10;6.50;71.30
20911;DHT22;10615;42.702;23.314;2023-02-21T00:15:29;6.50;71.40
20911;DHT22;10615;42.702;23.314;2023-02-21T00:16:48;6.50;71.60
20911;DHT22;10615;42.702;23.314;2023-02-21T00:18:07;6.50;71.70
20911;DHT22;10615;42.702;23.314;2023-02-21T00:19:26;6.40;71.80
20911;DHT22;10615;42.702;23.314;2023-02-21T00:20:45;6.50;71.90
20911;DHT22;10615;42.702;23.314;2023-02-21T00:22:04;6.50;72.00
20911;DHT22;10615;42.702;23.314;2023-02-21T00:23:23;6.50;72.00
20911;DHT22;10615;42.702;23.314;2023-02-21T00:24:43;6.50;71.90
20911;DHT22;10615;42.702;23.314;2023-02-21T00:26:02;6.50;71.80
20911;DHT22;10615;42.702;23.314;2023-02-21T00:27:22;6.50;71.90
20911;DHT22;10615;42.702;23.314;2023-02-21T00:28:42;6.40;71.90
20911;DHT22;10615;42.702;23.314;2023-02-21T00:30:01;6.40;72.10
20911;DHT22;10615;42.702;23.314;2023-02-21T00:31:20;6.40;72.00
20911;DHT22;10615;42.702;23.314;2023-02-21T00:32:39;6.40;72.00
20911;DHT22;10615;42.702;23.314;2023-02-21T00:33:58;6.40;72.00
20911;DHT22;10615;42.702;23.314;2023-02-21T00:35:17;6.40;72.10
20911;DHT22;10615;42.702;23.314;2023-02-21T00:36:36;6.40;72.00
20911;DHT22;10615;42.702;23.314;2023-02-21T00:37:55;6.40;72.00
20911;DHT22;10615;42.702;23.314;2023-02-21T00:39:14;6.40;72.10
20911;DHT22;10615;42.702;23.314;2023-02-21T00:40:33;6.40;72.20
20911;DHT22;10615;42.702;23.314;2023-02-21T00:41:53;6.30;72.10
20911;DHT22;10615;42.702;23.314;2023-02-21T00:43:12;6.30;72.20
20911;DHT22;10615;42.702;23.314;2023-02-21T00:44:31;6.40;72.30
20911;DHT22;10615;42.702;23.314;2023-02-21T00:45:50;6.40;72.30
20911;DHT22;10615;42.702;23.314;2023-02-21T00:47:09;6.40;72.30
20911;DHT22;10615;42.702;23.314;2023-02-21T00:48:28;6.40;72.10
20911;DHT22;10615;42.702;23.314;2023-02-21T00:49:48;6.40;72.00
20911;DHT22;10615;42.702;23.314;2023-02-21T00:51:07;6.40;72.00
20911;DHT22;10615;42.702;23.314;2023-02-21T00:52:27;6.40;72.00
20911;DHT22;10615;42.702;23.314;2023-02-21T00:53:46;6.30;72.00
20911;DHT22;10615;42.702;23.314;2023-02-21T00:55:05;6.40;72.00
20911;DHT22;10615;42.702;23.314;2023-02-21T00:56:24;6.30;72.00
20911;DHT22;10615;42.702;23.314;2023-02-21T00:57:43;6.30;72.00
20911;DHT22;10615;42.702;23.314;2023-02-21T00:59:02;6.30;72.10
20911;DHT22;10615;42.702;23.314;2023-02-21T01:00:23;6.30;72.20
20911;DHT22;10615;42.702;23.314;2023-02-21T01:01:42;6.30;72.30
20911;DHT22;10615;42.702;23.314;2023-02-21T01:03:02;6.20;72.30
20911;DHT22;10615;42.702;23.314;2023-02-21T01:04:21;6.20;72.30
20911;DHT22;10615;42.702;23.314;2023-02-21T01:05:40;6.30;72.40
20911;DHT22;10615;42.702;23.314;2023-02-21T01:06:59;6.30;72.40
20911;DHT22;10615;42.702;23.314;2023-02-21T01:08:18;6.30;72.50
20911;DHT22;10615;42.702;23.314;2023-02-21T01:09:38;6.30;72.40
20911;DHT22;10615;42.702;23.314;2023-02-21T01:10:57;6.30;72.30
20911;DHT22;10615;42.702;23.314;2023-02-21T01:12:16;6.30;72.30
20911;DHT22;10615;42.702;23.314;2023-02-21T01:13:35;6.40;72.30
20911;DHT22;10615;42.702;23.314;2023-02-21T01:14:54;6.40;72.30
20911;DHT22;10615;42.702;23.314;2023-02-21T01:16:13;6.40;72.20
20911;DHT22;10615;42.702;23.314;2023-02-21T01:17:32;6.40;72.20
20911;DHT22;10615;42.702;23.314;2023-02-21T01:18:51;6.40;72.30
20911;DHT22;10615;42.702;23.314;2023-02-21T01:20:10;6.40;72.20
20911;DHT22;10615;42.702;23.314;2023-02-21T01:21:29;6.40;72.20
20911;DHT22;10615;42.702;23.314;2023-02-21T01:22:49;6.30;72.20
20911;DHT22;10615;42.702;23.314;2023-02-21T01:24:11;6.30;72.30
20911;DHT22;10615;42.702;23.314;2023-02-21T01:25:31;6.40;72.30
20911;DHT22;10615;42.702;23.314;2023-02-21T01:26:50;6.40;72.30
20911;DHT22;10615;42.702;23.314;2023-02-21T01:28:09;6.30;72.30
20911;DHT22;10615;42.702;23.314;2023-02-21T01:29:28;6.30;72.30
20911;DHT22;10615;42.702;23.314;2023-02-21T01:30:48;6.30;72.40
20911;DHT22;10615;42.702;23.314;2023-02-21T01:32:07;6.30;72.60
20911;DHT22;10615;42.702;23.314;2023-02-21T01:33:26;6.30;72.60
20911;DHT22;10615;42.702;23.314;2023-02-21T01:34:45;6.20;72.60
20911;DHT22;10615;42.702;23.314;2023-02-21T01:36:05;6.30;72.80
20911;DHT22;10615;42.702;23.314;2023-02-21T01:37:24;6.30;72.80
20911;DHT22;10615;42.702;23.314;2023-02-21T01:38:43;6.30;72.90
20911;DHT22;10615;42.702;23.314;2023-02-21T01:40:03;6.30;72.90
20911;DHT22;10615;42.702;23.314;2023-02-21T01:41:22;6.40;73.00
20911;DHT22;10615;42.702;23.314;2023-02-21T01:42:41;6.30;72.70
20911;DHT22;10615;42.702;23.314;2023-02-21T01:45:54;6.30;73.70
20911;DHT22;10615;42.702;23.314;2023-02-21T01:47:13;6.30;72.90
20911;DHT22;10615;42.702;23.314;2023-02-21T01:48:33;6.30;73.00
20911;DHT22;10615;42.702;23.314;2023-02-21T01:49:53;6.30;73.00
20911;DHT22;10615;42.702;23.314;2023-02-21T01:51:15;6.30;72.90
20911;DHT22;10615;42.702;23.314;2023-02-21T01:52:35;6.30;73.00
20911;DHT22;10615;42.702;23.314;2023-02-21T01:53:55;6.30;73.10
20911;DHT22;10615;42.702;23.314;2023-02-21T01:55:13;6.30;73.10
20911;DHT22;10615;42.702;23.314;2023-02-21T01:56:33;6.30;73.10
20911;DHT22;10615;42.702;23.314;2023-02-21T01:57:53;6.30;73.10
20911;DHT22;10615;42.702;23.314;2023-02-21T01:59:13;6.30;73.10
20911;DHT22;10615;42.702;23.314;2023-02-21T02:00:33;6.30;73.10
20911;DHT22;10615;42.702;23.314;2023-02-21T02:03:28;6.30;73.30
20911;DHT22;10615;42.702;23.314;2023-02-21T02:04:49;6.30;73.40
20911;DHT22;10615;42.702;23.314;2023-02-21T02:06:12;6.40;73.30
20911;DHT22;10615;42.702;23.314;2023-02-21T02:07:32;6.40;73.10
20911;DHT22;10615;42.702;23.314;2023-02-21T02:08:52;6.40;73.10
20911;DHT22;10615;42.702;23.314;2023-02-21T02:10:12;6.50;72.90
20911;DHT22;10615;42.702;23.314;2023-02-21T02:11:59;6.50;72.80
20911;DHT22;10615;42.702;23.314;2023-02-21T02:15:42;6.40;72.70
20911;DHT22;10615;42.702;23.314;2023-02-21T02:25:14;6.30;72.90
20911;DHT22;10615;42.702;23.314;2023-02-21T02:31:06;6.30;73.20
20911;DHT22;10615;42.702;23.314;2023-02-21T02:32:28;6.30;74.20
20911;DHT22;10615;42.702;23.314;2023-02-21T02:36:27;6.40;74.30
20911;DHT22;10615;42.702;23.314;2023-02-21T02:37:58;6.40;73.30
20911;DHT22;10615;42.702;23.314;2023-02-21T02:42:38;6.30;73.10
20911;DHT22;10615;42.702;23.314;2023-02-21T02:44:10;6.30;73.10
20911;DHT22;10615;42.702;23.314;2023-02-21T02:46:34;6.30;73.30
20911;DHT22;10615;42.702;23.314;2023-02-21T02:47:37;6.30;73.30
20911;DHT22;10615;42.702;23.314;2023-02-21T02:49:01;6.30;73.30
20911;DHT22;10615;42.702;23.314;2023-02-21T02:50:04;6.40;73.20
20911;DHT22;10615;42.702;23.314;2023-02-21T02:51:08;6.30;73.10
20911;DHT22;10615;42.702;23.314;2023-02-21T02:52:10;6.30;73.10
20911;DHT22;10615;42.702;23.314;2023-02-21T02:53:11;6.30;73.20
20911;DHT22;10615;42.702;23.314;2023-02-21T02:54:11;6.30;73.20
20911;DHT22;10615;42.702;23.314;2023-02-21T02:55:29;6.30;73.20
20911;DHT22;10615;42.702;23.314;2023-02-21T02:56:31;6.40;73.30
20911;DHT22;10615;42.702;23.314;2023-02-21T02:57:33;6.40;73.20
20911;DHT22;10615;42.702;23.314;2023-02-21T02:58:56;6.30;73.10
20911;DHT22;10615;42.702;23.314;2023-02-21T02:59:58;6.40;73.30
20911;DHT22;10615;42.702;23.314;2023-02-21T03:02:23;6.30;73.10
20911;DHT22;10615;42.702;23.314;2023-02-21T03:03:51;6.30;73.10
20911;DHT22;10615;42.702;23.314;2023-02-21T03:04:59;6.30;73.40
20911;DHT22;10615;42.702;23.314;2023-02-21T03:06:19;6.30;73.40
20911;DHT22;10615;42.702;23.314;2023-02-21T03:07:47;6.30;73.50
20911;DHT22;10615;42.702;23.314;2023-02-21T03:13:42;6.20;73.70
20911;DHT22;10615;42.702;23.314;2023-02-21T03:15:00;6.20;73.90
20911;DHT22;10615;42.702;23.314;2023-02-21T03:17:11;6.20;73.80
20911;DHT22;10615;42.702;23.314;2023-02-21T03:18:29;6.20;73.80
20911;DHT22;10615;42.702;23.314;2023-02-21T03:19:34;6.20;73.90
20911;DHT22;10615;42.702;23.314;2023-02-21T03:20:37;6.20;73.90
20911;DHT22;10615;42.702;23.314;2023-02-21T03:21:42;6.30;74.00
20911;DHT22;10615;42.702;23.314;2023-02-21T03:22:44;6.30;73.90
20911;DHT22;10615;42.702;23.314;2023-02-21T03:23:49;6.30;73.90
20911;DHT22;10615;42.702;23.314;2023-02-21T03:24:52;6.30;74.80
20911;DHT22;10615;42.702;23.314;2023-02-21T03:25:56;6.30;73.90
20911;DHT22;10615;42.702;23.314;2023-02-21T03:27:02;6.30;73.70
20911;DHT22;10615;42.702;23.314;2023-02-21T03:28:04;6.30;73.70
20911;DHT22;10615;42.702;23.314;2023-02-21T03:29:06;6.30;73.70
20911;DHT22;10615;42.702;23.314;2023-02-21T03:30:08;6.30;73.70
20911;DHT22;10615;42.702;23.314;2023-02-21T03:31:09;6.30;73.70
20911;DHT22;10615;42.702;23.314;2023-02-21T03:32:26;6.30;73.70
20911;DHT22;10615;42.702;23.314;2023-02-21T03:33:27;6.30;73.70
20911;DHT22;10615;42.702;23.314;2023-02-21T03:34:28;6.30;73.60
20911;DHT22;10615;42.702;23.314;2023-02-21T03:35:29;6.30;73.60
20911;DHT22;10615;42.702;23.314;2023-02-21T03:36:31;6.20;73.90
20911;DHT22;10615;42.702;23.314;2023-02-21T03:37:35;6.20;73.70
20911;DHT22;10615;42.702;23.314;2023-02-21T03:38:35;6.20;73.80
20911;DHT22;10615;42.702;23.314;2023-02-21T03:39:36;6.20;73.80
20911;DHT22;10615;42.702;23.314;2023-02-21T03:40:37;6.20;73.90
20911;DHT22;10615;42.702;23.314;2023-02-21T03:41:37;6.20;73.90
20911;DHT22;10615;42.702;23.314;2023-02-21T03:42:38;6.20;74.00
20911;DHT22;10615;42.702;23.314;2023-02-21T03:43:39;6.20;74.00
20911;DHT22;10615;42.702;23.314;2023-02-21T03:44:39;6.20;74.10
20911;DHT22;10615;42.702;23.314;2023-02-21T03:45:40;6.20;74.90
20911;DHT22;10615;42.702;23.314;2023-02-21T03:46:40;6.10;74.10
20911;DHT22;10615;42.702;23.314;2023-02-21T03:47:41;6.10;74.20
20911;DHT22;10615;42.702;23.314;2023-02-21T03:48:42;6.10;74.20
20911;DHT22;10615;42.702;23.314;2023-02-21T03:49:42;6.10;74.20
20911;DHT22;10615;42.702;23.314;2023-02-21T03:50:43;6.10;74.20
20911;DHT22;10615;42.702;23.314;2023-02-21T03:51:44;6.10;74.20
20911;DHT22;10615;42.702;23.314;2023-02-21T03:52:44;6.10;74.20
20911;DHT22;10615;42.702;23.314;2023-02-21T03:53:45;6.10;74.30
20911;DHT22;10615;42.702;23.314;2023-02-21T03:54:46;6.10;74.20
20911;DHT22;10615;42.702;23.314;2023-02-21T03:55:46;6.00;74.10
20911;DHT22;10615;42.702;23.314;2023-02-21T03:56:47;6.00;74.20
20911;DHT22;10615;42.702;23.314;2023-02-21T03:57:48;6.00;74.20
20911;DHT22;10615;42.702;23.314;2023-02-21T03:58:48;6.00;74.40
20911;DHT22;10615;42.702;23.314;2023-02-21T03:59:49;6.00;74.50
20911;DHT22;10615;42.702;23.314;2023-02-21T04:00:50;6.00;74.50
20911;DHT22;10615;42.702;23.314;2023-02-21T04:01:51;6.00;74.50
20911;DHT22;10615;42.702;23.314;2023-02-21T04:04:11;6.00;74.60
20911;DHT22;10615;42.702;23.314;2023-02-21T04:05:11;6.00;74.60
20911;DHT22;10615;42.702;23.314;2023-02-21T04:06:12;6.00;74.60
20911;DHT22;10615;42.702;23.314;2023-02-21T04:07:14;6.00;74.60
20911;DHT22;10615;42.702;23.314;2023-02-21T04:08:15;5.90;74.60
20911;DHT22;10615;42.702;23.314;2023-02-21T04:09:15;6.00;74.70
20911;DHT22;10615;42.702;23.314;2023-02-21T04:10:16;6.00;74.70
20911;DHT22;10615;42.702;23.314;2023-02-21T04:11:21;6.00;74.70
20911;DHT22;10615;42.702;23.314;2023-02-21T04:12:22;6.00;74.70
20911;DHT22;10615;42.702;23.314;2023-02-21T04:13:22;6.00;74.80
20911;DHT22;10615;42.702;23.314;2023-02-21T04:14:24;5.90;74.70
20911;DHT22;10615;42.702;23.314;2023-02-21T04:15:24;6.00;74.90
20911;DHT22;10615;42.702;23.314;2023-02-21T04:16:25;6.00;74.80
20911;DHT22;10615;42.702;23.314;2023-02-21T04:17:26;6.00;74.70
20911;DHT22;10615;42.702;23.314;2023-02-21T04:18:26;6.00;74.70
20911;DHT22;10615;42.702;23.314;2023-02-21T04:19:27;6.00;74.70
20911;DHT22;10615;42.702;23.314;2023-02-21T04:20:28;6.00;74.70
20911;DHT22;10615;42.702;23.314;2023-02-21T04:21:29;6.00;74.70
20911;DHT22;10615;42.702;23.314;2023-02-21T04:22:29;6.00;74.70
20911;DHT22;10615;42.702;23.314;2023-02-21T04:23:30;6.00;74.70
20911;DHT22;10615;42.702;23.314;2023-02-21T04:24:31;6.00;74.70
20911;DHT22;10615;42.702;23.314;2023-02-21T04:25:32;6.00;74.70
20911;DHT22;10615;42.702;23.314;2023-02-21T04:26:32;6.00;74.70
20911;DHT22;10615;42.702;23.314;2023-02-21T04:27:34;6.00;74.70
20911;DHT22;10615;42.702;23.314;2023-02-21T04:28:34;6.00;74.70
20911;DHT22;10615;42.702;23.314;2023-02-21T04:29:35;6.00;74.90
20911;DHT22;10615;42.702;23.314;2023-02-21T04:30:36;6.00;74.80
20911;DHT22;10615;42.702;23.314;2023-02-21T04:31:36;6.00;74.80
20911;DHT22;10615;42.702;23.314;2023-02-21T04:32:37;6.00;74.70
20911;DHT22;10615;42.702;23.314;2023-02-21T04:33:38;6.00;74.70
20911;DHT22;10615;42.702;23.314;2023-02-21T04:34:38;6.00;74.70
20911;DHT22;10615;42.702;23.314;2023-02-21T04:35:39;6.00;74.70
20911;DHT22;10615;42.702;23.314;2023-02-21T04:36:40;6.00;74.80
20911;DHT22;10615;42.702;23.314;2023-02-21T04:37:40;6.00;74.90
20911;DHT22;10615;42.702;23.314;2023-02-21T04:38:41;6.00;75.00
20911;DHT22;10615;42.702;23.314;2023-02-21T04:39:42;5.90;74.90
20911;DHT22;10615;42.702;23.314;2023-02-21T04:40:42;6.00;75.10
20911;DHT22;10615;42.702;23.314;2023-02-21T04:41:43;5.90;75.00
20911;DHT22;10615;42.702;23.314;2023-02-21T04:42:43;6.00;75.10
20911;DHT22;10615;42.702;23.314;2023-02-21T04:43:44;6.00;75.00
20911;DHT22;10615;42.702;23.314;2023-02-21T04:44:45;6.00;75.00
20911;DHT22;10615;42.702;23.314;2023-02-21T04:45:46;5.90;75.00
20911;DHT22;10615;42.702;23.314;2023-02-21T04:46:46;5.90;75.00
20911;DHT22;10615;42.702;23.314;2023-02-21T04:47:47;5.90;75.00
20911;DHT22;10615;42.702;23.314;2023-02-21T04:48:49;5.90;75.10
20911;DHT22;10615;42.702;23.314;2023-02-21T04:49:50;5.80;75.20
20911;DHT22;10615;42.702;23.314;2023-02-21T04:50:52;5.80;75.30
20911;DHT22;10615;42.702;23.314;2023-02-21T04:51:55;5.80;75.40
20911;DHT22;10615;42.702;23.314;2023-02-21T04:52:56;5.80;75.50
20911;DHT22;10615;42.702;23.314;2023-02-21T04:53:56;5.80;75.50
20911;DHT22;10615;42.702;23.314;2023-02-21T04:54:57;5.70;75.50
20911;DHT22;10615;42.702;23.314;2023-02-21T04:55:58;5.70;75.60
20911;DHT22;10615;42.702;23.314;2023-02-21T04:56:59;5.70;75.60
20911;DHT22;10615;42.702;23.314;2023-02-21T04:58:00;5.70;75.70
20911;DHT22;10615;42.702;23.314;2023-02-21T04:59:01;5.70;75.70
20911;DHT22;10615;42.702;23.314;2023-02-21T05:00:02;5.70;75.70
20911;DHT22;10615;42.702;23.314;2023-02-21T05:01:06;5.70;75.70
20911;DHT22;10615;42.702;23.314;2023-02-21T05:02:07;5.70;75.70
20911;DHT22;10615;42.702;23.314;2023-02-21T05:03:08;5.70;75.70
20911;DHT22;10615;42.702;23.314;2023-02-21T05:04:09;5.70;75.70
20911;DHT22;10615;42.702;23.314;2023-02-21T05:05:10;5.70;75.80
20911;DHT22;10615;42.702;23.314;2023-02-21T05:06:20;5.70;75.80
20911;DHT22;10615;42.702;23.314;2023-02-21T05:07:21;5.70;75.80
20911;DHT22;10615;42.702;23.314;2023-02-21T05:08:22;5.70;75.80
20911;DHT22;10615;42.702;23.314;2023-02-21T05:09:23;5.80;75.90
20911;DHT22;10615;42.702;23.314;2023-02-21T05:10:24;5.70;75.80
20911;DHT22;10615;42.702;23.314;2023-02-21T05:11:25;5.70;75.70
20911;DHT22;10615;42.702;23.314;2023-02-21T05:12:26;5.70;75.70
20911;DHT22;10615;42.702;23.314;2023-02-21T05:13:26;5.80;75.70
20911;DHT22;10615;42.702;23.314;2023-02-21T05:14:27;5.80;75.70
20911;DHT22;10615;42.702;23.314;2023-02-21T05:15:27;5.80;75.50
20911;DHT22;10615;42.702;23.314;2023-02-21T05:16:28;5.80;75.50
20911;DHT22;10615;42.702;23.314;2023-02-21T05:17:29;5.70;75.40
20911;DHT22;10615;42.702;23.314;2023-02-21T05:18:29;5.70;75.50
20911;DHT22;10615;42.702;23.314;2023-02-21T05:19:30;5.70;75.50
20911;DHT22;10615;42.702;23.314;2023-02-21T05:20:31;5.80;75.70
20911;DHT22;10615;42.702;23.314;2023-02-21T05:21:34;5.80;75.70
20911;DHT22;10615;42.702;23.314;2023-02-21T05:22:40;5.80;75.70
20911;DHT22;10615;42.702;23.314;2023-02-21T05:23:42;5.80;75.60
20911;DHT22;10615;42.702;23.314;2023-02-21T05:24:55;5.80;75.50
20911;DHT22;10615;42.702;23.314;2023-02-21T05:25:55;5.80;75.40
20911;DHT22;10615;42.702;23.314;2023-02-21T05:26:57;5.90;75.30
20911;DHT22;10615;42.702;23.314;2023-02-21T05:27:58;5.90;75.40
20911;DHT22;10615;42.702;23.314;2023-02-21T05:28:58;5.90;75.40
20911;DHT22;10615;42.702;23.314;2023-02-21T05:29:59;5.90;75.40
20911;DHT22;10615;42.702;23.314;2023-02-21T05:31:00;5.90;75.30
20911;DHT22;10615;42.702;23.314;2023-02-21T05:32:00;6.00;75.40
20911;DHT22;10615;42.702;23.314;2023-02-21T05:33:01;6.00;75.50
20911;DHT22;10615;42.702;23.314;2023-02-21T05:34:02;6.10;76.10
20911;DHT22;10615;42.702;23.314;2023-02-21T05:35:03;6.20;75.60
20911;DHT22;10615;42.702;23.314;2023-02-21T05:36:04;6.30;75.30
20911;DHT22;10615;42.702;23.314;2023-02-21T05:37:05;6.30;74.90
20911;DHT22;10615;42.702;23.314;2023-02-21T05:38:06;6.40;74.50
20911;DHT22;10615;42.702;23.314;2023-02-21T05:39:07;6.60;74.30
20911;DHT22;10615;42.702;23.314;2023-02-21T05:40:11;6.90;74.00
20911;DHT22;10615;42.702;23.314;2023-02-21T05:41:13;7.20;73.70
20911;DHT22;10615;42.702;23.314;2023-02-21T05:42:13;7.50;73.10
20911;DHT22;10615;42.702;23.314;2023-02-21T05:43:14;8.00;72.60
20911;DHT22;10615;42.702;23.314;2023-02-21T05:44:15;8.40;71.90
20911;DHT22;10615;42.702;23.314;2023-02-21T05:45:16;8.70;71.10
20911;DHT22;10615;42.702;23.314;2023-02-21T05:46:24;8.90;70.10
20911;DHT22;10615;42.702;23.314;2023-02-21T05:47:25;9.20;69.10
20911;DHT22;10615;42.702;23.314;2023-02-21T05:48:26;9.40;68.10
20911;DHT22;10615;42.702;23.314;2023-02-21T05:49:27;9.40;67.10
20911;DHT22;10615;42.702;23.314;2023-02-21T05:50:28;9.40;66.30
20911;DHT22;10615;42.702;23.314;2023-02-21T05:51:37;9.40;65.50
20911;DHT22;10615;42.702;23.314;2023-02-21T05:52:38;9.50;64.90
20911;DHT22;10615;42.702;23.314;2023-02-21T05:53:38;9.80;64.90
20911;DHT22;10615;42.702;23.314;2023-02-21T05:54:39;10.00;64.60
20911;DHT22;10615;42.702;23.314;2023-02-21T05:55:40;10.10;63.80
20911;DHT22;10615;42.702;23.314;2023-02-21T05:56:42;10.30;63.30
20911;DHT22;10615;42.702;23.314;2023-02-21T05:57:43;10.50;62.70
20911;DHT22;10615;42.702;23.314;2023-02-21T05:58:44;10.70;62.00
20911;DHT22;10615;42.702;23.314;2023-02-21T05:59:45;11.00;61.50
20911;DHT22;10615;42.702;23.314;2023-02-21T06:00:47;11.50;60.70
20911;DHT22;10615;42.702;23.314;2023-02-21T06:01:49;12.00;59.70
20911;DHT22;10615;42.702;23.314;2023-02-21T06:02:50;12.60;58.70
20911;DHT22;10615;42.702;23.314;2023-02-21T06:03:51;13.10;57.50
20911;DHT22;10615;42.702;23.314;2023-02-21T06:04:52;13.70;56.20
20911;DHT22;10615;42.702;23.314;2023-02-21T06:05:53;14.30;54.80
20911;DHT22;10615;42.702;23.314;2023-02-21T06:06:53;14.90;53.60
20911;DHT22;10615;42.702;23.314;2023-02-21T06:07:54;15.50;52.60
20911;DHT22;10615;42.702;23.314;2023-02-21T06:08:55;16.10;51.40
20911;DHT22;10615;42.702;23.314;2023-02-21T06:09:55;16.60;49.90
20911;DHT22;10615;42.702;23.314;2023-02-21T06:10:56;17.00;48.60
20911;DHT22;10615;42.702;23.314;2023-02-21T06:11:57;17.30;47.40
20911;DHT22;10615;42.702;23.314;2023-02-21T06:12:57;17.70;46.50
20911;DHT22;10615;42.702;23.314;2023-02-21T06:14:00;18.10;46.00
20911;DHT22;10615;42.702;23.314;2023-02-21T06:15:03;18.30;45.30
20911;DHT22;10615;42.702;23.314;2023-02-21T06:16:06;18.40;44.60
20911;DHT22;10615;42.702;23.314;2023-02-21T06:17:07;18.60;44.30
20911;DHT22;10615;42.702;23.314;2023-02-21T06:18:07;18.80;43.80
20911;DHT22;10615;42.702;23.314;2023-02-21T06:19:09;18.90;42.90
20911;DHT22;10615;42.702;23.314;2023-02-21T06:20:12;19.10;42.60
20911;DHT22;10615;42.702;23.314;2023-02-21T06:21:14;19.30;42.10
20911;DHT22;10615;42.702;23.314;2023-02-21T06:22:15;19.40;41.50
20911;DHT22;10615;42.702;23.314;2023-02-21T06:23:15;19.50;41.20
20911;DHT22;10615;42.702;23.314;2023-02-21T06:24:16;19.60;40.90
20911;DHT22;10615;42.702;23.314;2023-02-21T06:25:17;19.70;40.60
20911;DHT22;10615;42.702;23.314;2023-02-21T06:26:18;19.70;40.30
20911;DHT22;10615;42.702;23.314;2023-02-21T06:27:19;19.80;40.10
20911;DHT22;10615;42.702;23.314;2023-02-21T06:28:20;19.80;40.00
20911;DHT22;10615;42.702;23.314;2023-02-21T06:29:20;19.90;40.00
20911;DHT22;10615;42.702;23.314;2023-02-21T06:30:21;20.10;40.00
20911;DHT22;10615;42.702;23.314;2023-02-21T06:31:22;20.40;39.80
20911;DHT22;10615;42.702;23.314;2023-02-21T06:32:22;20.60;39.40
20911;DHT22;10615;42.702;23.314;2023-02-21T06:33:24;20.70;38.80
20911;DHT22;10615;42.702;23.314;2023-02-21T06:34:25;20.90;38.40
20911;DHT22;10615;42.702;23.314;2023-02-21T06:35:26;21.00;38.00
20911;DHT22;10615;42.702;23.314;2023-02-21T06:36:28;21.20;37.70
20911;DHT22;10615;42.702;23.314;2023-02-21T06:37:28;21.30;37.40
20911;DHT22;10615;42.702;23.314;2023-02-21T06:38:29;21.40;37.30
20911;DHT22;10615;42.702;23.314;2023-02-21T06:39:30;21.60;37.00
20911;DHT22;10615;42.702;23.314;2023-02-21T06:40:30;21.70;36.80
20911;DHT22;10615;42.702;23.314;2023-02-21T06:41:31;22.00;36.60
20911;DHT22;10615;42.702;23.314;2023-02-21T06:43:33;22.10;35.10
20911;DHT22;10615;42.702;23.314;2023-02-21T06:44:35;22.10;35.30
20911;DHT22;10615;42.702;23.314;2023-02-21T06:45:36;22.20;35.30
20911;DHT22;10615;42.702;23.314;2023-02-21T06:46:37;22.20;35.10
20911;DHT22;10615;42.702;23.314;2023-02-21T06:47:38;22.20;34.90
20911;DHT22;10615;42.702;23.314;2023-02-21T06:48:38;22.30;34.80
20911;DHT22;10615;42.702;23.314;2023-02-21T06:49:39;22.20;34.80
20911;DHT22;10615;42.702;23.314;2023-02-21T06:50:40;22.10;34.90
20911;DHT22;10615;42.702;23.314;2023-02-21T06:51:41;22.00;35.10
20911;DHT22;10615;42.702;23.314;2023-02-21T06:52:42;21.90;35.30
20911;DHT22;10615;42.702;23.314;2023-02-21T06:53:44;21.90;35.40
20911;DHT22;10615;42.702;23.314;2023-02-21T06:54:44;21.50;35.40
20911;DHT22;10615;42.702;23.314;2023-02-21T06:55:45;21.20;35.60
20911;DHT22;10615;42.702;23.314;2023-02-21T06:56:46;20.80;36.00
20911;DHT22;10615;42.702;23.314;2023-02-21T06:57:47;20.70;36.50
20911;DHT22;10615;42.702;23.314;2023-02-21T06:58:47;20.50;36.80
20911;DHT22;10615;42.702;23.314;2023-02-21T06:59:48;20.00;36.90
20911;DHT22;10615;42.702;23.314;2023-02-21T07:00:48;20.20;37.50
20911;DHT22;10615;42.702;23.314;2023-02-21T07:01:49;20.50;37.90
20911;DHT22;10615;42.702;23.314;2023-02-21T07:02:50;20.80;38.00
20911;DHT22;10615;42.702;23.314;2023-02-21T07:03:51;21.10;37.80
20911;DHT22;10615;42.702;23.314;2023-02-21T07:04:51;21.60;37.30
20911;DHT22;10615;42.702;23.314;2023-02-21T07:05:52;22.10;36.70
20911;DHT22;10615;42.702;23.314;2023-02-21T07:06:53;22.40;35.80
20911;DHT22;10615;42.702;23.314;2023-02-21T07:07:54;22.60;35.10
20911;DHT22;10615;42.702;23.314;2023-02-21T07:08:54;23.00;34.70
20911;DHT22;10615;42.702;23.314;2023-02-21T07:09:55;23.20;34.00
20911;DHT22;10615;42.702;23.314;2023-02-21T07:10:55;23.40;33.50
20911;DHT22;10615;42.702;23.314;2023-02-21T07:11:56;23.10;33.10
20911;DHT22;10615;42.702;23.314;2023-02-21T07:12:57;23.10;33.20
20911;DHT22;10615;42.702;23.314;2023-02-21T07:13:58;22.90;33.10
20911;DHT22;10615;42.702;23.314;2023-02-21T07:14:58;22.80;33.20
20911;DHT22;10615;42.702;23.314;2023-02-21T07:16:00;22.50;33.40
20911;DHT22;10615;42.702;23.314;2023-02-21T07:17:01;22.40;33.70
20911;DHT22;10615;42.702;23.314;2023-02-21T07:18:01;22.50;34.00
20911;DHT22;10615;42.702;23.314;2023-02-21T07:19:02;22.30;33.90
20911;DHT22;10615;42.702;23.314;2023-02-21T07:20:03;21.90;34.00
20911;DHT22;10615;42.702;23.314;2023-02-21T07:21:04;21.30;34.30
20911;DHT22;10615;42.702;23.314;2023-02-21T07:22:05;20.80;34.80
20911;DHT22;10615;42.702;23.314;2023-02-21T07:23:05;20.20;35.50
20911;DHT22;10615;42.702;23.314;2023-02-21T07:24:06;19.70;36.20
20911;DHT22;10615;42.702;23.314;2023-02-21T07:25:06;19.30;37.00
20911;DHT22;10615;42.702;23.314;2023-02-21T07:26:07;18.90;37.70
20911;DHT22;10615;42.702;23.314;2023-02-21T07:27:08;18.50;38.40
20911;DHT22;10615;42.702;23.314;2023-02-21T07:28:10;18.00;39.00
20911;DHT22;10615;42.702;23.314;2023-02-21T07:29:10;17.90;39.80
20911;DHT22;10615;42.702;23.314;2023-02-21T07:30:11;17.80;40.60
20911;DHT22;10615;42.702;23.314;2023-02-21T07:31:12;17.70;40.90
20911;DHT22;10615;42.702;23.314;2023-02-21T07:32:13;17.90;41.30
20911;DHT22;10615;42.702;23.314;2023-02-21T07:33:14;18.30;41.50
20911;DHT22;10615;42.702;23.314;2023-02-21T07:34:14;19.10;41.40
20911;DHT22;10615;42.702;23.314;2023-02-21T07:35:16;19.30;40.70
20911;DHT22;10615;42.702;23.314;2023-02-21T07:36:17;19.60;40.10
20911;DHT22;10615;42.702;23.314;2023-02-21T07:37:17;19.90;39.50